Time;durP1;ratioP1;P1;durP2;ratioP2;P2;SDS_P1;SDS_P2;PMS_P1;PMS_P2;Temp;Humidity;BMP_temperature;BMP_pressure;BME280_temperature;BME280_humidity;BME280_pressure;Samples;Min_cycle;Max_cycle;Signal;HPM_P1;HPM_P2
2022/08/12 00:43:15;;;;;;;4.40;3.50;;;;;;;24.82;57.20;99659.69;5133447;27;20087;-37
2022/08/12 00:48:26;;;;;;;6.97;3.83;;;;;;;25.02;57.94;99655.78;5132751;27;20038;-37
2022/08/12 00:50:54;;;;;;;4.68;3.53;;;;;;;25.17;57.47;99660.94;5132735;27;20015;-37
2022/08/12 00:53:21;;;;;;;5.38;4.00;;;;;;;24.78;58.60;99657.56;5133102;27;20084;-38
2022/08/12 00:55:51;;;;;;;5.93;4.05;;;;;;;24.61;59.25;99651.09;5132876;27;20058;-38
2022/08/12 00:58:22;;;;;;;4.47;4.07;;;;;;;24.69;59.41;99653.91;5132905;27;20479;-38
2022/08/12 01:00:50;;;;;;;5.88;4.20;;;;;;;24.79;59.17;99652.94;5132516;27;20027;-38
2022/08/12 01:03:18;;;;;;;5.63;4.25;;;;;;;25.39;57.12;99643.09;5132832;27;20023;-38
2022/08/12 01:11:28;;;;;;;6.40;5.28;;;;;;;24.44;60.84;99662.50;5089320;27;20179;-38
2022/08/12 01:13:56;;;;;;;8.52;5.63;;;;;;;24.51;61.07;99666.47;5132396;27;20031;-38
2022/08/12 01:16:22;;;;;;;7.80;6.30;;;;;;;24.74;60.37;99663.91;5132460;27;20030;-38
2022/08/12 01:18:50;;;;;;;6.93;6.20;;;;;;;24.60;61.14;99666.63;5132619;27;20027;-38
2022/08/12 01:21:43;;;;;;;7.07;6.38;;;;;;;24.33;62.18;99659.97;5132236;27;20027;-39
2022/08/12 01:24:28;;;;;;;9.35;6.32;;;;;;;24.28;62.42;99672.84;5132131;27;20031;-38
2022/08/12 01:26:54;;;;;;;7.25;6.47;;;;;;;24.19;62.72;99670.75;5131895;27;20058;-38
2022/08/12 01:29:26;;;;;;;9.75;6.95;;;;;;;24.53;61.46;99671.63;5132173;27;20102;-38
2022/08/12 01:31:56;;;;;;;9.23;6.50;;;;;;;24.22;62.38;99657.69;5131964;27;20023;-37
2022/08/12 01:34:35;;;;;;;8.18;6.90;;;;;;;24.18;62.66;99660.22;5131652;27;20039;-36
2022/08/12 01:37:01;;;;;;;6.97;6.28;;;;;;;24.01;63.52;99660.75;5131968;27;20027;-37
2022/08/12 01:39:32;;;;;;;6.97;6.28;;;;;;;24.14;62.81;99656.44;5131978;27;20084;-37
2022/08/12 01:42:01;;;;;;;7.57;6.38;;;;;;;24.22;62.38;99657.69;5131800;27;20038;-37
2022/08/12 01:44:29;;;;;;;8.30;7.28;;;;;;;24.72;60.51;99644.38;5131379;27;20041;-37
2022/08/12 01:46:55;;;;;;;9.40;7.00;;;;;;;24.28;62.01;99646.44;5131345;27;20105;-37
2022/08/12 01:49:32;;;;;;;9.40;7.13;;;;;;;24.09;62.85;99638.31;5131730;27;20418;-38
2022/08/12 01:52:04;;;;;;;8.20;6.93;;;;;;;23.99;63.20;99638.50;5131947;27;20024;-37
2022/08/12 01:54:43;;;;;;;8.02;7.20;;;;;;;24.24;62.47;99645.44;5131357;27;20027;-37
2022/08/12 01:57:15;;;;;;;7.40;6.70;;;;;;;24.71;60.63;99642.75;5131364;27;20405;-37
2022/08/12 01:59:48;;;;;;;7.88;7.07;;;;;;;24.13;62.57;99639.34;5131786;27;20475;-37
2022/08/12 02:02:21;;;;;;;8.07;7.03;;;;;;;23.94;62.61;99641.28;5131532;27;20054;-37
2022/08/12 02:11:16;;;;;;;7.90;7.10;;;;;;;24.04;61.79;99629.44;5131642;27;20115;-37
2022/08/12 02:13:42;;;;;;;7.70;6.90;;;;;;;23.68;63.79;99627.22;5120415;28;20092;-37
2022/08/12 02:16:21;;;;;;;8.10;7.20;;;;;;;23.62;63.95;99632.72;5131323;27;20053;-37
2022/08/12 02:18:46;;;;;;;9.88;7.22;;;;;;;23.74;63.62;99626.03;5131205;28;20409;-38
2022/08/12 02:21:38;;;;;;;10.52;7.35;;;;;;;24.26;61.85;99634.25;5131435;28;20114;-37
2022/08/12 02:24:06;;;;;;;8.70;7.80;;;;;;;23.86;63.13;99622.94;5137954;27;20198;-37
2022/08/12 02:26:36;;;;;;;10.40;7.95;;;;;;;23.50;64.65;99626.91;5137727;27;20070;-37
2022/08/12 02:29:02;;;;;;;9.23;7.72;;;;;;;23.54;64.72;99622.50;5138111;27;20038;-37
2022/08/12 02:31:29;;;;;;;10.05;7.85;;;;;;;23.59;64.91;99630.59;5138406;27;20023;-37
2022/08/12 02:33:56;;;;;;;12.70;8.13;;;;;;;24.10;63.04;99636.41;5138237;27;20466;-37
2022/08/12 02:36:22;;;;;;;9.68;7.60;;;;;;;23.83;63.73;99637.09;5137662;27;20027;-37
2022/08/12 02:38:49;;;;;;;11.23;7.65;;;;;;;23.45;65.26;99634.31;5138339;27;20023;-37
2022/08/12 02:41:17;;;;;;;10.35;8.20;;;;;;;23.43;65.55;99640.84;5138121;27;20047;-37
2022/08/12 02:43:50;;;;;;;11.50;8.10;;;;;;;23.49;65.34;99640.78;5138007;27;20106;-38
2022/08/12 02:46:28;;;;;;;8.40;7.60;;;;;;;23.96;63.78;99642.59;5146110;27;20030;-37
2022/08/12 02:49:05;;;;;;;9.77;7.97;;;;;;;23.93;63.84;99636.94;5158271;27;20022;-38
2022/08/12 02:51:39;;;;;;;8.85;7.95;;;;;;;23.51;65.46;99639.38;5158744;27;20396;-38
2022/08/12 02:54:06;;;;;;;8.65;7.50;;;;;;;23.45;65.83;99645.19;5158949;27;20050;-38
2022/08/12 02:56:39;;;;;;;9.35;8.35;;;;;;;23.42;65.74;99644.66;5158474;27;20493;-38
2022/08/12 02:59:10;;;;;;;9.32;7.80;;;;;;;23.98;63.84;99645.81;5158713;27;20027;-39
2022/08/12 03:01:58;;;;;;;12.18;8.52;;;;;;;23.87;64.48;99648.97;5158702;27;20105;-37
2022/08/12 03:04:49;;;;;;;9.85;8.85;;;;;;;23.37;66.24;99646.63;5158167;27;20034;-37
2022/08/12 03:07:24;;;;;;;13.18;8.80;;;;;;;23.42;66.15;99650.09;5158567;27;20042;-36
2022/08/12 03:09:58;;;;;;;10.48;8.30;;;;;;;23.37;66.09;99652.06;5158092;27;20031;-36
2022/08/12 03:12:24;;;;;;;9.90;7.97;;;;;;;24.05;63.14;99650.88;5158559;27;20022;-36
2022/08/12 03:14:51;;;;;;;8.93;7.88;;;;;;;23.43;65.80;99654.41;5157956;27;20061;-37
2022/08/12 03:17:26;;;;;;;9.60;7.65;;;;;;;23.49;65.79;99652.44;5158528;27;20039;-37
2022/08/12 03:19:53;;;;;;;9.98;8.07;;;;;;;23.57;65.35;99657.25;5158076;27;20034;-37
2022/08/12 03:22:20;;;;;;;13.75;7.70;;;;;;;23.66;64.61;99660.09;5158465;27;20468;-37
2022/08/12 03:24:46;;;;;;;10.63;7.90;;;;;;;24.14;62.15;99657.28;5158307;27;20031;-36
2022/08/12 03:27:13;;;;;;;7.25;6.55;;;;;;;23.76;62.67;99657.25;5158083;27;20142;-37
2022/08/12 03:29:44;;;;;;;7.43;5.63;;;;;;;23.61;62.68;99657.47;5158258;27;20023;-37
2022/08/12 03:32:11;;;;;;;7.43;5.80;;;;;;;23.56;62.60;99650.19;5158182;27;20083;-37
2022/08/12 03:34:36;;;;;;;9.13;6.07;;;;;;;23.48;62.92;99644.59;5155613;27;20134;-36
2022/08/12 03:37:03;;;;;;;7.20;5.38;;;;;;;24.09;60.68;99654.63;5155085;27;20019;-37
2022/08/12 03:42:21;;;;;;;8.70;5.53;;;;;;;23.43;62.86;99657.13;5154612;27;20018;-37
2022/08/12 04:01:38;;;;;;;6.82;5.85;;;;;;;23.82;62.02;99649.88;5133580;27;20126;-36
2022/08/12 04:04:05;;;;;;;9.18;6.15;;;;;;;24.44;60.24;99659.78;5133837;27;20023;-37
2022/08/12 04:06:31;;;;;;;7.72;6.43;;;;;;;24.16;61.19;99660.50;5133657;27;20027;-37
2022/08/12 04:08:58;;;;;;;7.53;6.18;;;;;;;24.23;60.97;99664.75;5133653;27;20084;-37
2022/08/12 04:14:16;;;;;;;8.90;7.68;;;;;;;24.94;57.84;99663.56;5134062;27;20415;-37
2022/08/12 04:16:42;;;;;;;13.55;11.13;;;;;;;25.90;55.35;99661.84;5133990;27;20035;-37
2022/08/12 04:19:08;;;;;;;11.00;8.25;;;;;;;25.53;56.15;99666.50;5133656;27;20406;-37
2022/08/12 04:21:35;;;;;;;14.10;11.65;;;;;;;25.62;55.86;99655.66;5133346;27;20058;-37
2022/08/12 04:24:01;;;;;;;27.02;18.30;;;;;;;25.98;55.04;99665.78;5133614;27;20015;-37
2022/08/12 04:26:27;;;;;;;8.82;7.93;;;;;;;26.32;54.20;99661.72;5133038;27;20108;-36
2022/08/12 04:28:57;;;;;;;7.15;6.30;;;;;;;27.10;52.18;99667.63;5133454;27;20026;-38
2022/08/12 04:31:33;;;;;;;7.28;6.50;;;;;;;26.92;52.03;99676.84;5133361;27;20015;-37
2022/08/12 04:34:00;;;;;;;8.23;6.53;;;;;;;26.79;52.52;99667.66;5132893;27;20551;-37
2022/08/12 04:36:25;;;;;;;9.98;6.22;;;;;;;26.94;51.80;99665.63;5133226;27;20023;-37
2022/08/12 04:38:52;;;;;;;7.20;5.68;;;;;;;27.30;50.69;99674.47;5133311;27;20034;-37
2022/08/12 04:41:19;;;;;;;7.93;5.25;;;;;;;27.72;49.60;99670.53;5133226;27;20023;-37
2022/08/12 04:43:45;;;;;;;8.30;5.75;;;;;;;27.04;51.41;99674.34;5133569;27;20039;-37
2022/08/12 04:46:11;;;;;;;7.57;6.00;;;;;;;26.75;52.44;99679.50;5131787;27;20073;-37
2022/08/12 04:48:36;;;;;;;6.55;5.80;;;;;;;26.62;52.72;99671.09;5132809;27;20031;-37
2022/08/12 04:51:03;;;;;;;6.45;5.50;;;;;;;26.67;52.58;99679.16;5132760;27;20023;-37
2022/08/12 04:53:29;;;;;;;6.95;5.63;;;;;;;27.35;50.81;99683.63;5132779;27;20038;-36
2022/08/12 04:55:55;;;;;;;10.70;6.38;;;;;;;26.47;52.95;99676.91;5132982;27;20026;-37
2022/08/12 04:58:21;;;;;;;7.68;5.90;;;;;;;26.29;54.29;99678.69;5132577;27;20513;-37
2022/08/12 05:00:46;;;;;;;6.70;6.00;;;;;;;26.05;54.99;99682.53;5132649;27;20019;-37
2022/08/12 05:03:12;;;;;;;7.13;5.47;;;;;;;26.06;54.03;99677.88;5132395;27;20053;-37
2022/08/12 05:05:39;;;;;;;8.50;5.55;;;;;;;26.41;52.47;99670.78;5132391;27;20050;-37
2022/08/12 05:08:11;;;;;;;7.00;5.55;;;;;;;26.07;53.24;99688.47;5132334;27;20019;-37
2022/08/12 05:10:36;;;;;;;7.47;5.60;;;;;;;26.14;53.63;99688.03;5132566;27;20015;-37
2022/08/12 05:13:26;;;;;;;9.93;8.43;;;;;;;26.71;52.04;99690.22;5132230;27;20684;-37
2022/08/12 05:15:52;;;;;;;8.38;4.90;;;;;;;27.27;50.16;99688.75;5124500;27;20039;-38
2022/08/12 05:18:18;;;;;;;6.30;4.72;;;;;;;28.12;47.83;99692.28;5132046;27;20034;-37
2022/08/12 05:20:43;;;;;;;6.28;4.75;;;;;;;27.94;48.16;99710.63;5132091;27;20023;-37
2022/08/12 05:23:18;;;;;;;8.95;5.22;;;;;;;28.06;47.45;99710.78;5132081;27;20034;-37
2022/08/12 05:25:44;;;;;;;6.90;4.20;;;;;;;28.15;47.31;99710.78;5132215;27;20092;-37
2022/08/12 05:28:12;;;;;;;7.70;4.97;;;;;;;28.53;46.63;99715.63;5131743;27;20030;-36
2022/08/12 05:30:41;;;;;;;5.85;4.80;;;;;;;29.36;44.88;99717.97;5131977;27;20051;-37
2022/08/12 05:33:08;;;;;;;7.15;5.45;;;;;;;29.13;45.93;99711.94;5131980;27;20482;-37
2022/08/12 05:35:40;;;;;;;8.90;5.47;;;;;;;29.24;46.25;99715.94;5132087;27;20427;-37
2022/08/12 05:40:54;;;;;;;7.72;5.80;;;;;;;29.63;45.19;99716.69;5132060;27;20034;-37
2022/08/12 05:43:20;;;;;;;5.28;4.78;;;;;;;30.67;43.08;99706.03;5131974;27;20023;-37
2022/08/12 05:45:46;;;;;;;7.60;5.10;;;;;;;30.29;43.19;99698.81;5131590;27;20115;-37
2022/08/12 05:48:12;;;;;;;8.20;5.60;;;;;;;30.30;43.13;99705.88;5131534;27;20431;-38
2022/08/12 05:50:38;;;;;;;9.18;5.25;;;;;;;30.31;43.55;99703.94;5131400;27;20106;-37
2022/08/12 05:53:05;;;;;;;5.35;4.80;;;;;;;31.25;41.33;99697.78;5131548;27;20102;-38
2022/08/12 05:55:31;;;;;;;7.40;4.70;;;;;;;31.18;40.93;99705.78;5131711;27;20093;-37
2022/08/12 05:57:57;;;;;;;5.05;4.40;;;;;;;31.17;40.83;99699.50;5130864;27;20031;-37
2022/08/12 06:00:24;;;;;;;5.90;4.47;;;;;;;31.44;39.94;99702.69;5131521;27;20035;-36
2022/08/12 06:02:59;;;;;;;6.50;4.50;;;;;;;32.26;38.70;99698.88;5131358;27;20521;-38
2022/08/12 06:05:33;;;;;;;6.85;4.97;;;;;;;32.09;38.83;99696.44;5131426;27;20075;-36
2022/08/12 06:07:59;;;;;;;6.93;5.00;;;;;;;31.69;39.55;99681.50;5131536;27;20401;-37
2022/08/12 06:10:25;;;;;;;5.80;4.68;;;;;;;31.99;38.24;99691.38;5131104;27;20118;-38
2022/08/12 06:12:51;;;;;;;7.30;4.40;;;;;;;32.57;38.12;99699.34;5131776;27;20110;-37
2022/08/12 06:15:18;;;;;;;6.10;4.60;;;;;;;32.30;37.93;99691.53;5131656;27;20018;-37
2022/08/12 06:17:45;;;;;;;6.85;4.75;;;;;;;32.40;37.71;99694.94;5131484;27;20023;-37
2022/08/12 06:20:14;;;;;;;7.78;5.07;;;;;;;32.80;37.22;99694.84;5131352;27;20059;-37
2022/08/12 06:22:41;;;;;;;7.43;4.65;;;;;;;33.45;36.44;99704.69;5131530;28;20054;-38
2022/08/12 06:25:07;;;;;;;8.45;5.20;;;;;;;33.50;35.59;99698.91;5131990;28;20061;-36
2022/08/12 06:27:46;;;;;;;10.02;5.63;;;;;;;33.13;36.48;99688.22;5131315;28;20051;-38
2022/08/12 06:30:14;;;;;;;6.20;4.57;;;;;;;33.07;36.12;99692.34;5131567;28;20026;-37
2022/08/12 06:32:39;;;;;;;8.95;4.65;;;;;;;33.54;35.37;99691.53;5131114;28;20023;-36
2022/08/12 06:35:05;;;;;;;10.20;5.57;;;;;;;33.80;35.35;99698.44;5131405;28;20023;-37
2022/08/12 06:37:38;;;;;;;6.80;4.90;;;;;;;33.48;35.07;99691.00;5131158;28;20037;-38
2022/08/12 06:40:06;;;;;;;6.68;4.50;;;;;;;33.54;35.34;99693.50;5131450;28;20034;-38
2022/08/12 06:42:46;;;;;;;6.40;4.60;;;;;;;34.03;35.15;99698.50;5130715;28;20051;-38
2022/08/12 06:45:13;;;;;;;8.95;4.25;;;;;;;34.26;34.13;99693.09;5131237;28;20137;-36
2022/08/12 06:47:39;;;;;;;7.43;4.72;;;;;;;33.94;34.53;99695.16;5130996;28;20054;-37
2022/08/12 06:50:05;;;;;;;6.78;5.03;;;;;;;34.01;33.48;99698.09;5131275;28;20536;-37
2022/08/12 06:52:31;;;;;;;6.90;4.90;;;;;;;34.38;33.40;99698.44;5131145;28;20011;-37
2022/08/12 06:54:58;;;;;;;8.45;5.88;;;;;;;34.83;32.87;99690.59;5131459;28;20015;-44
2022/08/12 06:57:26;;;;;;;9.50;4.80;;;;;;;34.47;33.26;99684.41;5130994;28;20019;-46
2022/08/12 06:59:53;;;;;;;5.30;4.20;;;;;;;34.26;33.34;99682.03;5130684;28;20027;-44
2022/08/12 07:02:19;;;;;;;5.43;4.28;;;;;;;34.80;32.96;99675.53;5130606;28;20031;-43
2022/08/12 07:04:46;;;;;;;7.32;4.40;;;;;;;35.29;31.31;99676.75;5130442;28;20098;-46
2022/08/12 07:07:12;;;;;;;8.27;4.90;;;;;;;34.98;31.50;99661.25;5130419;28;20443;-44
2022/08/12 07:09:41;;;;;;;5.68;4.63;;;;;;;35.09;32.33;99666.91;5131520;27;20061;-45
2022/08/12 07:12:18;;;;;;;5.35;4.57;;;;;;;35.05;33.03;99666.84;5134297;27;20043;-45
2022/08/12 07:14:50;;;;;;;5.65;4.82;;;;;;;35.48;31.85;99666.75;5134398;27;20420;-47
2022/08/12 07:17:18;;;;;;;5.45;4.90;;;;;;;35.34;32.18;99668.13;5134758;27;20119;-44
2022/08/12 07:19:45;;;;;;;;;;;;;;;35.53;32.00;99670.00;5134742;27;20026;-45
2022/08/12 07:22:12;;;;;;;10.43;4.22;;;;;;;35.49;32.04;99658.09;5133998;27;19933;-44
2022/08/12 07:24:37;;;;;;;6.53;4.28;;;;;;;36.51;30.25;99661.69;5134241;27;20027;-47
2022/08/12 07:27:03;;;;;;;5.25;4.00;;;;;;;35.88;30.75;99655.03;5134339;27;20471;-44
2022/08/12 07:29:28;;;;;;;4.47;3.95;;;;;;;35.76;30.36;99658.84;5134469;27;20138;-43
2022/08/12 07:31:58;;;;;;;5.07;3.90;;;;;;;35.54;31.03;99657.72;5134562;27;20102;-44
2022/08/12 07:34:25;;;;;;;4.18;3.75;;;;;;;36.59;29.60;99657.81;5134143;27;20387;-44
2022/08/12 07:36:51;;;;;;;6.63;3.90;;;;;;;36.45;29.88;99656.88;5133660;27;20115;-43
2022/08/12 07:39:16;;;;;;;6.68;4.55;;;;;;;36.12;30.29;99642.66;5133934;27;20030;-46
2022/08/12 07:41:42;;;;;;;9.20;5.40;;;;;;;35.84;29.99;99645.13;5134496;27;20027;-45
2022/08/12 07:44:09;;;;;;;6.60;4.65;;;;;;;35.82;29.84;99639.94;5134452;27;20057;-46
2022/08/12 07:46:42;;;;;;;7.95;5.10;;;;;;;35.85;29.79;99639.19;5133502;27;20019;-44
2022/08/12 07:49:13;;;;;;;5.80;4.13;;;;;;;35.65;29.74;99648.78;5133729;27;20076;-43
2022/08/12 07:51:40;;;;;;;7.97;4.57;;;;;;;35.65;30.30;99648.78;5133884;27;20019;-43
2022/08/12 07:54:08;;;;;;;9.73;4.63;;;;;;;36.29;29.29;99640.47;5133865;27;20019;-42
2022/08/12 07:56:35;;;;;;;5.18;4.00;;;;;;;35.84;29.01;99639.56;5133410;27;20024;-41
2022/08/12 07:59:01;;;;;;;5.90;3.65;;;;;;;35.22;29.65;99641.50;5133964;27;20054;-46
2022/08/12 08:01:28;;;;;;;8.13;3.90;;;;;;;35.26;29.90;99638.75;5133929;27;20050;-44
2022/08/12 08:06:41;;;;;;;3.63;3.22;;;;;;;35.68;26.99;99637.81;5133335;27;20049;-44
2022/08/12 08:09:10;;;;;;;3.67;3.00;;;;;;;35.22;28.23;99641.50;5133573;27;20166;-44
2022/08/12 08:14:20;;;;;;;8.18;3.15;;;;;;;36.09;27.17;99631.56;5133331;27;20034;-44
2022/08/12 08:16:47;;;;;;;5.20;3.03;;;;;;;36.47;26.90;99622.06;5133318;27;20015;-43
2022/08/12 08:19:22;;;;;;;4.35;2.90;;;;;;;36.16;27.02;99623.34;5133215;27;20030;-44
2022/08/12 08:21:48;;;;;;;5.00;2.88;;;;;;;36.26;26.44;99613.56;5132915;27;20478;-45
2022/08/12 08:24:13;;;;;;;5.30;3.10;;;;;;;36.47;26.62;99612.97;5133302;27;20027;-48
2022/08/12 08:26:40;;;;;;;5.03;2.60;;;;;;;36.89;25.62;99611.75;5133017;27;20050;-46
2022/08/12 08:29:07;;;;;;;5.80;3.10;;;;;;;36.72;25.43;99611.22;5132852;27;20147;-45
2022/08/12 08:31:33;;;;;;;4.35;2.92;;;;;;;36.60;25.81;99619.81;5132763;27;20027;-44
2022/08/12 08:34:00;;;;;;;3.30;2.80;;;;;;;37.01;26.34;99616.97;5132987;27;20055;-42
2022/08/12 08:36:26;;;;;;;3.90;2.80;;;;;;;37.77;24.28;99621.00;5132862;27;20011;-44
2022/08/12 08:38:52;;;;;;;6.13;2.85;;;;;;;36.99;24.91;99611.03;5132654;27;20019;-47
2022/08/12 08:44:01;;;;;;;3.20;2.63;;;;;;;36.91;25.34;99617.69;5133344;27;20037;-43
2022/08/12 08:46:27;;;;;;;4.53;3.00;;;;;;;37.72;24.33;99605.53;5132174;27;20019;-47
2022/08/12 08:48:53;;;;;;;5.20;3.90;;;;;;;35.97;27.34;99602.16;5132661;27;20038;-47
2022/08/12 08:51:19;;;;;;;6.15;3.80;;;;;;;35.76;27.82;99595.22;5132473;27;20062;-46
2022/08/12 08:53:44;;;;;;;5.07;3.58;;;;;;;35.60;27.79;99597.34;5132588;27;20122;-47
2022/08/12 08:56:10;;;;;;;4.22;3.40;;;;;;;36.69;26.95;99583.47;5132965;27;20102;-44
2022/08/12 08:58:42;;;;;;;4.10;3.45;;;;;;;36.27;27.04;99591.03;5132379;27;20467;-44
2022/08/12 09:01:08;;;;;;;5.00;3.42;;;;;;;36.04;26.55;99590.34;5132303;27;20058;-43
2022/08/12 09:03:33;;;;;;;4.38;3.22;;;;;;;35.95;26.97;99582.38;5132696;27;20069;-45
2022/08/12 09:06:00;;;;;;;3.50;2.50;;;;;;;36.32;24.86;99562.97;5132720;27;20023;-44
2022/08/12 09:08:26;;;;;;;4.25;2.40;;;;;;;35.78;25.50;99575.47;5132421;27;20027;-46
2022/08/12 09:13:26;;;;;;;3.75;2.50;;;;;;;35.73;25.70;99570.25;5132018;27;20178;-43
2022/08/12 09:13:37;;;;;;;5.30;2.80;;;;;;;35.93;25.40;99566.13;5132277;27;20437;-45
2022/08/12 09:16:04;;;;;;;3.45;2.45;;;;;;;36.44;24.33;99570.19;5131185;27;20087;-46
2022/08/12 09:18:30;;;;;;;5.63;2.65;;;;;;;35.66;24.23;99562.63;5131852;27;20026;-45
2022/08/12 09:20:56;;;;;;;4.03;2.55;;;;;;;34.16;25.61;99558.41;5132045;27;20057;-45
2022/08/12 09:23:21;;;;;;;4.70;2.20;;;;;;;34.43;25.62;99560.06;5131803;27;20051;-46
2022/08/12 09:25:47;;;;;;;4.63;2.50;;;;;;;34.99;24.80;99566.88;5131988;27;20055;-44
2022/08/12 09:28:13;;;;;;;3.63;2.70;;;;;;;34.89;25.46;99561.19;5131885;27;20027;-45
2022/08/12 09:30:45;;;;;;;3.20;2.70;;;;;;;34.41;26.31;99551.34;5132446;27;20062;-46
2022/08/12 09:33:11;;;;;;;4.57;2.70;;;;;;;33.86;26.71;99557.03;5130647;27;20030;-45
2022/08/12 09:35:39;;;;;;;4.30;2.50;;;;;;;34.14;27.52;99567.03;5131412;27;20042;-45
2022/08/12 09:38:05;;;;;;;8.38;2.60;;;;;;;34.15;26.12;99568.59;5131703;27;20129;-46
2022/08/12 09:40:31;;;;;;;4.85;2.70;;;;;;;34.08;26.64;99562.94;5131650;27;20247;-44
2022/08/12 09:45:47;;;;;;;2.85;2.42;;;;;;;34.04;26.52;99556.56;5132028;27;20539;-43
2022/08/12 09:48:18;;;;;;;3.65;2.55;;;;;;;34.37;26.26;99563.50;5131823;27;20394;-44
2022/08/12 09:50:49;;;;;;;4.00;2.60;;;;;;;34.02;26.25;99556.94;5131794;27;20441;-43
2022/08/12 09:53:22;;;;;;;2.83;2.50;;;;;;;34.36;26.38;99548.09;5131441;27;20474;-43
2022/08/12 09:55:56;;;;;;;3.70;2.53;;;;;;;34.75;26.30;99548.75;5131315;27;20034;-44
2022/08/12 09:58:29;;;;;;;2.80;2.50;;;;;;;35.41;25.47;99548.50;5130850;27;20490;-45
2022/08/12 10:01:05;;;;;;;4.03;2.85;;;;;;;34.92;26.01;99541.91;5130756;27;20415;-44
2022/08/12 10:03:32;;;;;;;6.10;2.80;;;;;;;35.08;26.45;99535.41;5131086;27;20102;-46
2022/08/12 10:05:59;;;;;;;4.90;2.50;;;;;;;35.22;25.05;99539.19;5130713;27;20473;-44
2022/08/12 10:08:31;;;;;;;4.15;2.70;;;;;;;35.63;25.31;99524.66;5130813;27;20019;-48
2022/08/12 10:13:58;;;;;;;6.53;2.60;;;;;;;35.18;25.37;99523.72;5131094;27;20030;-47
2022/08/12 10:16:31;;;;;;;4.63;2.60;;;;;;;35.29;24.50;99523.84;5130478;27;20091;-45
2022/08/12 10:19:00;;;;;;;3.75;2.60;;;;;;;35.16;24.54;99524.06;5130824;27;20015;-43
2022/08/12 10:21:37;;;;;;;4.60;2.60;;;;;;;34.59;25.09;99512.94;5130891;27;20444;-45
2022/08/12 10:24:03;;;;;;;2.78;2.47;;;;;;;33.98;25.83;99513.88;5130653;28;20026;-45
2022/08/12 10:32:02;;;;;;;3.47;2.60;;;;;;;33.62;27.16;99496.63;5131186;28;20021;-45
2022/08/12 10:34:29;;;;;;;3.60;2.63;;;;;;;34.04;27.17;99498.59;5131116;28;20102;-48
2022/08/12 10:36:59;;;;;;;3.30;2.40;;;;;;;34.56;26.28;99501.88;5130507;28;20400;-43
2022/08/12 10:39:32;;;;;;;3.20;2.60;;;;;;;35.42;25.24;99500.31;5130967;28;20019;-46
2022/08/12 10:44:51;;;;;;;7.15;2.70;;;;;;;33.80;26.16;99495.06;5134042;27;20087;-44
2022/08/12 10:47:18;;;;;;;3.47;2.60;;;;;;;33.76;25.58;99485.09;5133934;27;20444;-46
2022/08/12 10:49:45;;;;;;;3.33;2.47;;;;;;;33.57;25.78;99485.91;5135059;27;20015;-46
2022/08/12 10:52:11;;;;;;;2.90;2.60;;;;;;;33.92;26.06;99479.50;5134811;27;20406;-46
2022/08/12 10:54:37;;;;;;;2.92;2.50;;;;;;;33.56;26.18;99470.53;5134842;27;20539;-47
2022/08/12 10:57:03;;;;;;;4.15;2.50;;;;;;;33.58;27.14;99477.25;5134560;27;20470;-46
2022/08/12 10:59:30;;;;;;;4.28;2.70;;;;;;;33.89;26.46;99458.91;5133956;27;20025;-44
2022/08/12 11:02:00;;;;;;;3.50;2.60;;;;;;;34.35;25.92;99472.75;5134619;27;20027;-44
2022/08/12 11:04:28;;;;;;;2.63;2.30;;;;;;;34.81;25.78;99466.34;5134501;27;20101;-43
2022/08/12 11:06:55;;;;;;;4.70;2.42;;;;;;;35.02;25.55;99463.06;5134296;27;20387;-46
2022/08/12 11:09:23;;;;;;;6.63;2.70;;;;;;;34.71;25.39;99447.63;5134373;27;20106;-44
2022/08/12 11:11:49;;;;;;;4.60;2.75;;;;;;;34.45;25.99;99450.00;5134313;27;20019;-45
2022/08/12 11:14:16;;;;;;;4.82;2.90;;;;;;;34.92;26.00;99449.88;5134701;27;20494;-44
2022/08/12 11:16:43;;;;;;;4.93;2.40;;;;;;;35.23;24.94;99435.69;5134178;27;20019;-43
2022/08/12 11:19:09;;;;;;;7.18;2.60;;;;;;;35.74;23.83;99439.81;5133973;27;20030;-44
2022/08/12 11:21:36;;;;;;;5.40;2.47;;;;;;;35.19;25.22;99439.59;5133997;27;20030;-45
2022/08/12 11:24:02;;;;;;;5.30;2.75;;;;;;;35.31;25.84;99431.03;5134220;27;20075;-45
2022/08/12 11:26:27;;;;;;;4.10;2.63;;;;;;;35.20;24.82;99438.41;5134012;27;20047;-44
2022/08/12 11:28:52;;;;;;;4.25;2.42;;;;;;;35.28;24.89;99431.81;5134587;27;20116;-45
2022/08/12 11:31:18;;;;;;;3.40;2.50;;;;;;;35.92;24.07;99430.88;5134449;27;20398;-42
2022/08/12 11:33:43;;;;;;;4.05;3.05;;;;;;;35.60;24.73;99428.56;5134230;27;20023;-44
2022/08/12 11:36:09;;;;;;;4.65;2.90;;;;;;;35.59;25.26;99438.06;5134326;27;20027;-45
2022/08/12 11:38:34;;;;;;;3.38;2.58;;;;;;;35.59;24.21;99421.47;5134270;27;20494;-44
2022/08/12 11:41:03;;;;;;;2.50;2.20;;;;;;;35.35;23.36;99420.81;5133768;27;20015;-44
2022/08/12 11:43:29;;;;;;;4.68;2.40;;;;;;;36.43;22.37;99421.00;5134374;27;20035;-45
2022/08/12 11:45:55;;;;;;;2.50;2.20;;;;;;;36.24;23.26;99416.53;5133980;27;20100;-44
2022/08/12 11:48:20;;;;;;;4.38;2.53;;;;;;;36.25;23.63;99424.44;5133920;27;20030;-43
2022/08/12 11:50:46;;;;;;;4.05;2.55;;;;;;;35.81;23.16;99416.94;5115269;27;20471;-44
2022/08/12 11:53:11;;;;;;;3.97;2.28;;;;;;;35.93;22.67;99413.06;5134127;27;20547;-44
2022/08/12 11:55:36;;;;;;;3.28;2.75;;;;;;;36.67;22.17;99408.47;5133192;27;20470;-45
2022/08/12 11:58:02;;;;;;;2.35;2.15;;;;;;;35.86;22.54;99408.28;5133772;27;20028;-44
2022/08/12 12:00:28;;;;;;;4.13;2.22;;;;;;;35.10;22.93;99401.16;5133636;27;20023;-43
2022/08/12 12:02:53;;;;;;;4.82;3.13;;;;;;;34.83;23.64;99392.94;5133645;27;20494;-41
2022/08/12 12:05:19;;;;;;;3.90;3.20;;;;;;;35.40;23.20;99398.34;5134042;27;20060;-46
2022/08/12 12:07:46;;;;;;;3.67;2.20;;;;;;;35.78;22.58;99390.03;5133884;27;20124;-47
2022/08/12 12:10:17;;;;;;;2.60;2.20;;;;;;;35.67;22.76;99387.16;5133488;27;20096;-44
2022/08/12 12:12:43;;;;;;;2.40;2.20;;;;;;;35.40;23.35;99386.50;5133466;27;20090;-45
2022/08/12 12:15:09;;;;;;;4.03;2.40;;;;;;;35.39;22.83;99373.84;5133708;27;20063;-45
2022/08/12 12:17:39;;;;;;;3.10;2.42;;;;;;;35.50;22.38;99371.19;5133993;27;20019;-44
2022/08/12 12:20:10;;;;;;;2.60;2.40;;;;;;;35.57;22.35;99369.28;5133820;27;20075;-45
2022/08/12 12:22:38;;;;;;;2.70;2.30;;;;;;;36.13;21.98;99372.91;5133050;27;20543;-44
2022/08/12 12:25:04;;;;;;;2.80;2.50;;;;;;;35.74;22.14;99361.56;5133014;27;20027;-43
2022/08/12 12:27:44;;;;;;;2.70;2.20;;;;;;;35.62;22.93;99355.09;5133218;27;20091;-43
2022/08/12 12:30:09;;;;;;;2.97;2.35;;;;;;;36.04;22.32;99349.50;5133048;27;20023;-44
2022/08/12 12:32:35;;;;;;;3.42;2.20;;;;;;;36.27;22.45;99341.78;5133303;27;20402;-45
2022/08/12 12:35:00;;;;;;;3.83;2.28;;;;;;;37.04;21.15;99341.72;5132748;27;20023;-46
2022/08/12 12:37:26;;;;;;;2.67;2.40;;;;;;;36.08;22.31;99342.00;5133027;27;20097;-45
2022/08/12 12:39:51;;;;;;;2.72;2.28;;;;;;;35.71;22.02;99338.19;5133119;27;20422;-43
2022/08/12 12:42:16;;;;;;;3.67;2.25;;;;;;;35.15;23.36;99342.78;5132987;27;20390;-45
2022/08/12 12:44:42;;;;;;;2.88;2.35;;;;;;;35.30;23.07;99340.97;5132825;27;20026;-44
2022/08/12 12:47:07;;;;;;;2.90;2.45;;;;;;;35.30;22.48;99334.63;5132649;27;20034;-44
2022/08/12 12:49:33;;;;;;;6.32;2.30;;;;;;;35.07;22.92;99334.75;5132827;27;20027;-44
2022/08/12 12:51:58;;;;;;;2.88;2.17;;;;;;;34.92;23.20;99329.09;5132774;27;20047;-44
2022/08/12 12:54:23;;;;;;;2.58;2.30;;;;;;;35.25;23.07;99330.25;5132977;27;20019;-43
2022/08/12 12:56:51;;;;;;;2.55;2.35;;;;;;;35.28;22.82;99334.22;5131841;27;20470;-45
2022/08/12 12:59:17;;;;;;;3.75;2.20;;;;;;;35.06;22.98;99328.44;5132366;27;20397;-43
2022/08/12 13:01:43;;;;;;;2.97;2.40;;;;;;;35.67;22.32;99329.03;5132062;27;20023;-48
2022/08/12 13:04:10;;;;;;;2.83;2.40;;;;;;;35.00;23.43;99324.44;5132604;27;20102;-43
2022/08/12 13:06:37;;;;;;;3.30;2.15;;;;;;;35.03;23.37;99324.50;5131422;27;20393;-43
2022/08/12 13:09:03;;;;;;;4.65;2.45;;;;;;;35.00;22.87;99314.19;5131997;27;20050;-44
2022/08/12 13:11:28;;;;;;;2.78;2.30;;;;;;;35.50;22.14;99318.63;5132377;27;20134;-43
2022/08/12 13:13:55;;;;;;;2.90;2.42;;;;;;;36.30;22.03;99310.53;5132363;27;20455;-45
2022/08/12 13:16:21;;;;;;;2.50;2.30;;;;;;;36.24;21.72;99309.31;5131835;27;20038;-44
2022/08/12 13:18:50;;;;;;;3.53;2.22;;;;;;;35.98;21.84;99300.03;5131998;27;20042;-44
2022/08/12 13:21:17;;;;;;;3.00;2.22;;;;;;;36.04;22.93;99310.75;5149575;27;20046;-47
2022/08/12 13:23:44;;;;;;;2.80;2.38;;;;;;;35.86;22.22;99303.13;5151419;27;20019;-43